sensor_id;sensor_type;location;lat;lon;timestamp;P1;durP1;ratioP1;P2;durP2;ratioP2
75429;SDS011;64127;51.488;5.462;2022-12-16T00:01:45;26.47;;;22.33;;
75429;SDS011;64127;51.488;5.462;2022-12-16T00:04:17;26.33;;;21.53;;
75429;SDS011;64127;51.488;5.462;2022-12-16T00:06:49;25.47;;;21.13;;
75429;SDS011;64127;51.488;5.462;2022-12-16T00:09:21;26.63;;;20.63;;
75429;SDS011;64127;51.488;5.462;2022-12-16T00:11:53;26.47;;;21.57;;
75429;SDS011;64127;51.488;5.462;2022-12-16T00:14:25;24.77;;;20.20;;
75429;SDS011;64127;51.488;5.462;2022-12-16T00:16:59;23.70;;;19.40;;
75429;SDS011;64127;51.488;5.462;2022-12-16T00:19:31;24.33;;;20.20;;
75429;SDS011;64127;51.488;5.462;2022-12-16T00:22:03;25.70;;;19.23;;
75429;SDS011;64127;51.488;5.462;2022-12-16T00:24:35;23.90;;;19.50;;
75429;SDS011;64127;51.488;5.462;2022-12-16T00:27:07;24.47;;;18.97;;
75429;SDS011;64127;51.488;5.462;2022-12-16T00:29:39;27.00;;;19.63;;
75429;SDS011;64127;51.488;5.462;2022-12-16T00:32:11;26.90;;;19.27;;
75429;SDS011;64127;51.488;5.462;2022-12-16T00:34:43;24.87;;;20.17;;
75429;SDS011;64127;51.488;5.462;2022-12-16T00:37:15;23.77;;;19.23;;
75429;SDS011;64127;51.488;5.462;2022-12-16T00:39:47;23.37;;;19.03;;
75429;SDS011;64127;51.488;5.462;2022-12-16T00:42:19;30.10;;;21.10;;
75429;SDS011;64127;51.488;5.462;2022-12-16T00:44:51;23.37;;;19.00;;
75429;SDS011;64127;51.488;5.462;2022-12-16T00:47:24;23.17;;;18.83;;
75429;SDS011;64127;51.488;5.462;2022-12-16T00:50:12;25.50;;;20.77;;
75429;SDS011;64127;51.488;5.462;2022-12-16T00:52:45;22.93;;;18.77;;
75429;SDS011;64127;51.488;5.462;2022-12-16T00:55:18;24.50;;;20.33;;
75429;SDS011;64127;51.488;5.462;2022-12-16T00:57:51;24.87;;;20.43;;
75429;SDS011;64127;51.488;5.462;2022-12-16T01:00:25;24.97;;;20.37;;
75429;SDS011;64127;51.488;5.462;2022-12-16T01:02:57;24.47;;;20.17;;
75429;SDS011;64127;51.488;5.462;2022-12-16T01:05:29;23.97;;;18.60;;
75429;SDS011;64127;51.488;5.462;2022-12-16T01:08:01;22.83;;;18.90;;
75429;SDS011;64127;51.488;5.462;2022-12-16T01:10:33;26.33;;;19.77;;
75429;SDS011;64127;51.488;5.462;2022-12-16T01:13:05;23.73;;;19.67;;
75429;SDS011;64127;51.488;5.462;2022-12-16T01:15:38;23.47;;;18.97;;
75429;SDS011;64127;51.488;5.462;2022-12-16T01:18:10;25.50;;;19.83;;
75429;SDS011;64127;51.488;5.462;2022-12-16T01:20:42;23.60;;;19.47;;
75429;SDS011;64127;51.488;5.462;2022-12-16T01:23:15;23.93;;;19.57;;
75429;SDS011;64127;51.488;5.462;2022-12-16T01:25:48;23.63;;;19.30;;
75429;SDS011;64127;51.488;5.462;2022-12-16T01:28:26;25.07;;;19.60;;
75429;SDS011;64127;51.488;5.462;2022-12-16T01:30:59;23.53;;;19.10;;
75429;SDS011;64127;51.488;5.462;2022-12-16T01:33:32;24.07;;;20.47;;
75429;SDS011;64127;51.488;5.462;2022-12-16T01:36:05;24.60;;;20.07;;
75429;SDS011;64127;51.488;5.462;2022-12-16T01:38:40;24.23;;;20.30;;
75429;SDS011;64127;51.488;5.462;2022-12-16T01:41:15;23.83;;;19.60;;
75429;SDS011;64127;51.488;5.462;2022-12-16T01:43:48;26.73;;;19.90;;
75429;SDS011;64127;51.488;5.462;2022-12-16T01:46:21;23.60;;;19.17;;
75429;SDS011;64127;51.488;5.462;2022-12-16T01:49:03;22.93;;;20.20;;
75429;SDS011;64127;51.488;5.462;2022-12-16T01:51:45;24.47;;;19.33;;
75429;SDS011;64127;51.488;5.462;2022-12-16T01:54:29;23.47;;;19.80;;
75429;SDS011;64127;51.488;5.462;2022-12-16T01:57:08;24.13;;;19.00;;
75429;SDS011;64127;51.488;5.462;2022-12-16T01:59:48;24.50;;;19.83;;
75429;SDS011;64127;51.488;5.462;2022-12-16T02:02:24;25.60;;;20.07;;
75429;SDS011;64127;51.488;5.462;2022-12-16T02:04:57;25.60;;;19.87;;
75429;SDS011;64127;51.488;5.462;2022-12-16T02:08:00;24.37;;;19.10;;
75429;SDS011;64127;51.488;5.462;2022-12-16T02:13:29;23.30;;;19.20;;
75429;SDS011;64127;51.488;5.462;2022-12-16T02:16:51;25.17;;;19.40;;
75429;SDS011;64127;51.488;5.462;2022-12-16T02:31:51;23.90;;;19.07;;
75429;SDS011;64127;51.488;5.462;2022-12-16T02:43:56;24.73;;;20.17;;
75429;SDS011;64127;51.488;5.462;2022-12-16T02:46:38;26.17;;;20.43;;
75429;SDS011;64127;51.488;5.462;2022-12-16T02:51:57;25.53;;;20.60;;
75429;SDS011;64127;51.488;5.462;2022-12-16T02:54:31;24.33;;;19.83;;
75429;SDS011;64127;51.488;5.462;2022-12-16T03:00:08;25.47;;;20.83;;
75429;SDS011;64127;51.488;5.462;2022-12-16T03:02:55;24.13;;;20.03;;
75429;SDS011;64127;51.488;5.462;2022-12-16T03:05:51;24.10;;;19.83;;
75429;SDS011;64127;51.488;5.462;2022-12-16T03:08:34;24.77;;;19.53;;
75429;SDS011;64127;51.488;5.462;2022-12-16T03:11:12;24.50;;;20.47;;
75429;SDS011;64127;51.488;5.462;2022-12-16T03:13:46;27.77;;;21.40;;
75429;SDS011;64127;51.488;5.462;2022-12-16T03:16:25;25.40;;;20.13;;
75429;SDS011;64127;51.488;5.462;2022-12-16T03:19:03;25.40;;;21.60;;
75429;SDS011;64127;51.488;5.462;2022-12-16T03:21:49;25.20;;;20.80;;
75429;SDS011;64127;51.488;5.462;2022-12-16T03:24:27;30.13;;;20.40;;
75429;SDS011;64127;51.488;5.462;2022-12-16T03:30:04;26.43;;;21.53;;
75429;SDS011;64127;51.488;5.462;2022-12-16T03:32:53;25.30;;;21.03;;
75429;SDS011;64127;51.488;5.462;2022-12-16T03:35:40;26.17;;;20.47;;
75429;SDS011;64127;51.488;5.462;2022-12-16T03:38:27;27.27;;;22.60;;
75429;SDS011;64127;51.488;5.462;2022-12-16T03:41:03;29.10;;;21.90;;
75429;SDS011;64127;51.488;5.462;2022-12-16T03:43:38;30.97;;;22.90;;
75429;SDS011;64127;51.488;5.462;2022-12-16T03:46:10;28.40;;;23.27;;
75429;SDS011;64127;51.488;5.462;2022-12-16T03:48:48;27.93;;;24.30;;
75429;SDS011;64127;51.488;5.462;2022-12-16T03:51:22;31.47;;;24.13;;
75429;SDS011;64127;51.488;5.462;2022-12-16T03:53:54;30.80;;;24.53;;
75429;SDS011;64127;51.488;5.462;2022-12-16T03:56:26;30.77;;;25.03;;
75429;SDS011;64127;51.488;5.462;2022-12-16T03:58:58;32.77;;;25.20;;
75429;SDS011;64127;51.488;5.462;2022-12-16T04:01:30;33.30;;;25.83;;
75429;SDS011;64127;51.488;5.462;2022-12-16T04:04:02;30.90;;;23.87;;
75429;SDS011;64127;51.488;5.462;2022-12-16T04:06:34;29.37;;;23.97;;
75429;SDS011;64127;51.488;5.462;2022-12-16T04:09:06;31.20;;;24.70;;
75429;SDS011;64127;51.488;5.462;2022-12-16T04:11:39;31.83;;;25.80;;
75429;SDS011;64127;51.488;5.462;2022-12-16T04:14:29;30.47;;;24.93;;
75429;SDS011;64127;51.488;5.462;2022-12-16T04:17:23;30.70;;;25.20;;
75429;SDS011;64127;51.488;5.462;2022-12-16T04:20:17;31.93;;;24.87;;
75429;SDS011;64127;51.488;5.462;2022-12-16T04:23:09;30.80;;;24.63;;
75429;SDS011;64127;51.488;5.462;2022-12-16T04:26:01;33.57;;;24.93;;
75429;SDS011;64127;51.488;5.462;2022-12-16T04:28:33;33.93;;;26.23;;
75429;SDS011;64127;51.488;5.462;2022-12-16T04:31:05;37.07;;;26.47;;
75429;SDS011;64127;51.488;5.462;2022-12-16T04:33:37;37.80;;;26.50;;
75429;SDS011;64127;51.488;5.462;2022-12-16T04:36:34;38.60;;;25.63;;
75429;SDS011;64127;51.488;5.462;2022-12-16T04:39:24;40.53;;;27.93;;
75429;SDS011;64127;51.488;5.462;2022-12-16T04:42:15;44.70;;;29.80;;
75429;SDS011;64127;51.488;5.462;2022-12-16T04:45:06;50.07;;;30.07;;
75429;SDS011;64127;51.488;5.462;2022-12-16T04:47:57;46.03;;;28.87;;
75429;SDS011;64127;51.488;5.462;2022-12-16T04:50:47;48.77;;;29.03;;
75429;SDS011;64127;51.488;5.462;2022-12-16T04:53:37;48.83;;;30.10;;
75429;SDS011;64127;51.488;5.462;2022-12-16T04:56:28;51.23;;;30.10;;
75429;SDS011;64127;51.488;5.462;2022-12-16T04:59:19;47.43;;;29.10;;
75429;SDS011;64127;51.488;5.462;2022-12-16T05:02:09;47.33;;;29.63;;
75429;SDS011;64127;51.488;5.462;2022-12-16T05:05:00;51.53;;;29.50;;
75429;SDS011;64127;51.488;5.462;2022-12-16T05:07:51;46.33;;;29.70;;
75429;SDS011;64127;51.488;5.462;2022-12-16T05:10:42;49.70;;;29.17;;
75429;SDS011;64127;51.488;5.462;2022-12-16T05:13:32;53.67;;;30.20;;
75429;SDS011;64127;51.488;5.462;2022-12-16T05:16:23;45.40;;;27.77;;
75429;SDS011;64127;51.488;5.462;2022-12-16T05:19:13;49.03;;;29.37;;
75429;SDS011;64127;51.488;5.462;2022-12-16T05:22:17;41.53;;;27.97;;
75429;SDS011;64127;51.488;5.462;2022-12-16T05:25:08;42.00;;;27.87;;
75429;SDS011;64127;51.488;5.462;2022-12-16T05:27:59;40.30;;;26.83;;
75429;SDS011;64127;51.488;5.462;2022-12-16T05:30:49;43.13;;;27.60;;
75429;SDS011;64127;51.488;5.462;2022-12-16T05:33:40;44.73;;;27.53;;
75429;SDS011;64127;51.488;5.462;2022-12-16T05:36:31;41.00;;;27.93;;
75429;SDS011;64127;51.488;5.462;2022-12-16T05:39:22;41.90;;;28.17;;
75429;SDS011;64127;51.488;5.462;2022-12-16T05:42:13;42.30;;;27.47;;
75429;SDS011;64127;51.488;5.462;2022-12-16T05:45:03;43.07;;;27.23;;
75429;SDS011;64127;51.488;5.462;2022-12-16T05:47:54;37.10;;;26.27;;
75429;SDS011;64127;51.488;5.462;2022-12-16T05:50:45;40.63;;;27.03;;
75429;SDS011;64127;51.488;5.462;2022-12-16T05:53:35;39.17;;;27.27;;
75429;SDS011;64127;51.488;5.462;2022-12-16T05:56:26;37.33;;;26.20;;
75429;SDS011;64127;51.488;5.462;2022-12-16T05:59:16;37.70;;;26.80;;
75429;SDS011;64127;51.488;5.462;2022-12-16T06:02:07;37.53;;;27.17;;
75429;SDS011;64127;51.488;5.462;2022-12-16T06:04:58;37.90;;;25.93;;
75429;SDS011;64127;51.488;5.462;2022-12-16T06:07:51;39.93;;;25.30;;
75429;SDS011;64127;51.488;5.462;2022-12-16T06:10:42;39.40;;;26.37;;
75429;SDS011;64127;51.488;5.462;2022-12-16T06:13:33;36.87;;;24.83;;
75429;SDS011;64127;51.488;5.462;2022-12-16T06:16:23;35.50;;;25.07;;
75429;SDS011;64127;51.488;5.462;2022-12-16T06:19:14;35.43;;;24.70;;
75429;SDS011;64127;51.488;5.462;2022-12-16T06:22:04;37.20;;;26.03;;
75429;SDS011;64127;51.488;5.462;2022-12-16T06:24:55;33.67;;;25.17;;
75429;SDS011;64127;51.488;5.462;2022-12-16T06:27:51;37.57;;;25.47;;
75429;SDS011;64127;51.488;5.462;2022-12-16T06:30:47;36.60;;;27.30;;
75429;SDS011;64127;51.488;5.462;2022-12-16T06:33:42;37.37;;;24.77;;
75429;SDS011;64127;51.488;5.462;2022-12-16T06:36:32;37.53;;;26.33;;
75429;SDS011;64127;51.488;5.462;2022-12-16T06:39:23;40.97;;;26.93;;
75429;SDS011;64127;51.488;5.462;2022-12-16T06:42:13;36.77;;;25.93;;
75429;SDS011;64127;51.488;5.462;2022-12-16T06:45:04;36.67;;;26.27;;
75429;SDS011;64127;51.488;5.462;2022-12-16T06:48:00;36.87;;;26.07;;
75429;SDS011;64127;51.488;5.462;2022-12-16T06:50:51;35.33;;;26.03;;
75429;SDS011;64127;51.488;5.462;2022-12-16T06:53:41;35.07;;;25.43;;
75429;SDS011;64127;51.488;5.462;2022-12-16T06:56:32;36.47;;;24.93;;
75429;SDS011;64127;51.488;5.462;2022-12-16T06:59:22;36.57;;;25.17;;
75429;SDS011;64127;51.488;5.462;2022-12-16T07:02:13;35.37;;;25.30;;
75429;SDS011;64127;51.488;5.462;2022-12-16T07:05:11;34.30;;;23.83;;
75429;SDS011;64127;51.488;5.462;2022-12-16T07:08:02;32.60;;;24.60;;
75429;SDS011;64127;51.488;5.462;2022-12-16T07:10:53;35.80;;;24.57;;
75429;SDS011;64127;51.488;5.462;2022-12-16T07:13:47;33.90;;;23.70;;
75429;SDS011;64127;51.488;5.462;2022-12-16T07:16:37;31.50;;;23.90;;
75429;SDS011;64127;51.488;5.462;2022-12-16T07:19:28;31.93;;;23.43;;
75429;SDS011;64127;51.488;5.462;2022-12-16T07:22:18;30.83;;;23.83;;
75429;SDS011;64127;51.488;5.462;2022-12-16T07:25:09;32.80;;;24.13;;
75429;SDS011;64127;51.488;5.462;2022-12-16T07:27:59;30.20;;;23.20;;
75429;SDS011;64127;51.488;5.462;2022-12-16T07:30:50;30.27;;;22.13;;
75429;SDS011;64127;51.488;5.462;2022-12-16T07:33:41;36.95;;;27.05;;
75429;SDS011;64127;51.488;5.462;2022-12-16T07:36:32;33.13;;;25.13;;
75429;SDS011;64127;51.488;5.462;2022-12-16T07:39:22;30.73;;;24.30;;
75429;SDS011;64127;51.488;5.462;2022-12-16T07:42:13;32.50;;;24.37;;
75429;SDS011;64127;51.488;5.462;2022-12-16T07:45:03;34.77;;;24.50;;
75429;SDS011;64127;51.488;5.462;2022-12-16T07:47:54;31.70;;;23.53;;
75429;SDS011;64127;51.488;5.462;2022-12-16T07:50:45;30.33;;;23.87;;
75429;SDS011;64127;51.488;5.462;2022-12-16T07:53:35;30.07;;;22.57;;
75429;SDS011;64127;51.488;5.462;2022-12-16T07:56:26;32.60;;;22.43;;
75429;SDS011;64127;51.488;5.462;2022-12-16T07:59:16;28.90;;;21.30;;
75429;SDS011;64127;51.488;5.462;2022-12-16T08:02:10;27.47;;;21.43;;
75429;SDS011;64127;51.488;5.462;2022-12-16T08:05:01;31.60;;;22.90;;
75429;SDS011;64127;51.488;5.462;2022-12-16T08:07:52;30.80;;;22.83;;
75429;SDS011;64127;51.488;5.462;2022-12-16T08:10:43;29.10;;;22.20;;
75429;SDS011;64127;51.488;5.462;2022-12-16T08:13:33;34.13;;;23.30;;
75429;SDS011;64127;51.488;5.462;2022-12-16T08:16:24;29.13;;;21.20;;
75429;SDS011;64127;51.488;5.462;2022-12-16T08:19:15;28.83;;;21.63;;
75429;SDS011;64127;51.488;5.462;2022-12-16T08:22:06;27.37;;;21.33;;
75429;SDS011;64127;51.488;5.462;2022-12-16T08:24:57;28.27;;;21.53;;
75429;SDS011;64127;51.488;5.462;2022-12-16T08:27:52;38.47;;;23.20;;
75429;SDS011;64127;51.488;5.462;2022-12-16T08:30:48;35.47;;;21.20;;
75429;SDS011;64127;51.488;5.462;2022-12-16T08:33:39;34.27;;;22.60;;
75429;SDS011;64127;51.488;5.462;2022-12-16T08:36:30;51.37;;;22.67;;
75429;SDS011;64127;51.488;5.462;2022-12-16T08:39:21;35.40;;;22.03;;
75429;SDS011;64127;51.488;5.462;2022-12-16T08:42:11;35.93;;;22.43;;
75429;SDS011;64127;51.488;5.462;2022-12-16T08:45:02;48.20;;;22.87;;
75429;SDS011;64127;51.488;5.462;2022-12-16T08:47:53;36.20;;;21.70;;
75429;SDS011;64127;51.488;5.462;2022-12-16T08:50:44;54.50;;;22.53;;
75429;SDS011;64127;51.488;5.462;2022-12-16T08:53:34;43.27;;;22.17;;
75429;SDS011;64127;51.488;5.462;2022-12-16T08:56:25;30.30;;;21.40;;
75429;SDS011;64127;51.488;5.462;2022-12-16T08:59:15;34.87;;;22.33;;
75429;SDS011;64127;51.488;5.462;2022-12-16T09:02:08;30.60;;;22.20;;
75429;SDS011;64127;51.488;5.462;2022-12-16T09:05:00;30.07;;;20.83;;
75429;SDS011;64127;51.488;5.462;2022-12-16T09:07:51;32.17;;;21.13;;
75429;SDS011;64127;51.488;5.462;2022-12-16T09:10:41;29.17;;;21.03;;
75429;SDS011;64127;51.488;5.462;2022-12-16T09:13:32;26.30;;;21.17;;
75429;SDS011;64127;51.488;5.462;2022-12-16T09:16:22;28.20;;;21.50;;
75429;SDS011;64127;51.488;5.462;2022-12-16T09:19:13;30.43;;;21.47;;
75429;SDS011;64127;51.488;5.462;2022-12-16T09:22:04;33.10;;;21.83;;
75429;SDS011;64127;51.488;5.462;2022-12-16T09:24:54;38.23;;;21.20;;
75429;SDS011;64127;51.488;5.462;2022-12-16T09:27:47;36.93;;;22.53;;
75429;SDS011;64127;51.488;5.462;2022-12-16T09:30:38;44.43;;;22.47;;
75429;SDS011;64127;51.488;5.462;2022-12-16T09:33:29;37.63;;;21.90;;
75429;SDS011;64127;51.488;5.462;2022-12-16T09:36:19;40.57;;;21.97;;
75429;SDS011;64127;51.488;5.462;2022-12-16T09:39:10;36.07;;;22.43;;
75429;SDS011;64127;51.488;5.462;2022-12-16T09:42:03;37.97;;;21.83;;
75429;SDS011;64127;51.488;5.462;2022-12-16T09:45:12;30.63;;;21.73;;
75429;SDS011;64127;51.488;5.462;2022-12-16T09:51:39;31.10;;;22.07;;
75429;SDS011;64127;51.488;5.462;2022-12-16T09:54:32;30.83;;;22.63;;
75429;SDS011;64127;51.488;5.462;2022-12-16T09:57:27;37.37;;;23.47;;
75429;SDS011;64127;51.488;5.462;2022-12-16T10:00:23;36.70;;;22.77;;
75429;SDS011;64127;51.488;5.462;2022-12-16T10:03:33;35.80;;;23.13;;
75429;SDS011;64127;51.488;5.462;2022-12-16T10:06:48;32.50;;;21.00;;
75429;SDS011;64127;51.488;5.462;2022-12-16T10:13:23;31.10;;;19.67;;
75429;SDS011;64127;51.488;5.462;2022-12-16T10:19:58;24.50;;;18.50;;
75429;SDS011;64127;51.488;5.462;2022-12-16T10:26:11;28.53;;;19.23;;
75429;SDS011;64127;51.488;5.462;2022-12-16T10:29:23;27.10;;;19.80;;
75429;SDS011;64127;51.488;5.462;2022-12-16T10:32:59;25.63;;;19.50;;
75429;SDS011;64127;51.488;5.462;2022-12-16T10:35:35;26.90;;;19.93;;
75429;SDS011;64127;51.488;5.462;2022-12-16T10:38:49;36.80;;;20.23;;
75429;SDS011;64127;51.488;5.462;2022-12-16T10:41:45;28.27;;;19.83;;
75429;SDS011;64127;51.488;5.462;2022-12-16T10:44:56;30.77;;;20.43;;
75429;SDS011;64127;51.488;5.462;2022-12-16T10:47:50;33.97;;;20.93;;
75429;SDS011;64127;51.488;5.462;2022-12-16T10:50:40;39.60;;;22.47;;
75429;SDS011;64127;51.488;5.462;2022-12-16T10:53:31;28.03;;;21.97;;
75429;SDS011;64127;51.488;5.462;2022-12-16T10:56:41;26.63;;;20.97;;
75429;SDS011;64127;51.488;5.462;2022-12-16T10:59:44;30.13;;;20.27;;
75429;SDS011;64127;51.488;5.462;2022-12-16T11:02:34;26.43;;;19.87;;
75429;SDS011;64127;51.488;5.462;2022-12-16T11:05:32;27.57;;;20.60;;
75429;SDS011;64127;51.488;5.462;2022-12-16T11:11:21;24.53;;;20.00;;
75429;SDS011;64127;51.488;5.462;2022-12-16T11:17:40;21.83;;;18.47;;
75429;SDS011;64127;51.488;5.462;2022-12-16T11:21:10;24.00;;;19.60;;
75429;SDS011;64127;51.488;5.462;2022-12-16T11:24:17;24.70;;;20.37;;
75429;SDS011;64127;51.488;5.462;2022-12-16T11:27:14;23.13;;;19.43;;
75429;SDS011;64127;51.488;5.462;2022-12-16T11:36:19;22.10;;;18.03;;
75429;SDS011;64127;51.488;5.462;2022-12-16T11:39:18;23.60;;;18.70;;
75429;SDS011;64127;51.488;5.462;2022-12-16T11:42:15;19.17;;;17.13;;
75429;SDS011;64127;51.488;5.462;2022-12-16T11:45:16;21.23;;;17.83;;
75429;SDS011;64127;51.488;5.462;2022-12-16T11:48:18;19.73;;;17.57;;
75429;SDS011;64127;51.488;5.462;2022-12-16T11:51:33;20.77;;;16.97;;
75429;SDS011;64127;51.488;5.462;2022-12-16T12:04:40;19.70;;;17.47;;
75429;SDS011;64127;51.488;5.462;2022-12-16T12:07:36;19.17;;;16.50;;
75429;SDS011;64127;51.488;5.462;2022-12-16T12:26:42;18.80;;;16.80;;
75429;SDS011;64127;51.488;5.462;2022-12-16T12:29:56;16.87;;;15.17;;
75429;SDS011;64127;51.488;5.462;2022-12-16T12:33:04;17.37;;;14.70;;
75429;SDS011;64127;51.488;5.462;2022-12-16T12:36:16;17.07;;;15.30;;
75429;SDS011;64127;51.488;5.462;2022-12-16T12:39:33;17.53;;;15.70;;
75429;SDS011;64127;51.488;5.462;2022-12-16T12:42:51;16.90;;;15.10;;
75429;SDS011;64127;51.488;5.462;2022-12-16T12:48:56;20.40;;;17.80;;
75429;SDS011;64127;51.488;5.462;2022-12-16T12:52:34;19.00;;;16.60;;
75429;SDS011;64127;51.488;5.462;2022-12-16T12:58:47;19.07;;;17.07;;
75429;SDS011;64127;51.488;5.462;2022-12-16T13:01:42;19.57;;;17.20;;
75429;SDS011;64127;51.488;5.462;2022-12-16T13:04:35;19.43;;;16.60;;
75429;SDS011;64127;51.488;5.462;2022-12-16T13:07:30;18.13;;;16.23;;
75429;SDS011;64127;51.488;5.462;2022-12-16T13:22:34;16.07;;;14.20;;
75429;SDS011;64127;51.488;5.462;2022-12-16T13:28:42;15.33;;;13.73;;
75429;SDS011;64127;51.488;5.462;2022-12-16T13:34:59;14.37;;;12.10;;
75429;SDS011;64127;51.488;5.462;2022-12-16T13:38:20;14.23;;;12.73;;
75429;SDS011;64127;51.488;5.462;2022-12-16T13:45:14;16.40;;;14.60;;
75429;SDS011;64127;51.488;5.462;2022-12-16T13:47:57;15.63;;;14.03;;
75429;SDS011;64127;51.488;5.462;2022-12-16T13:50:45;14.37;;;12.97;;
75429;SDS011;64127;51.488;5.462;2022-12-16T13:53:50;14.97;;;13.47;;
75429;SDS011;64127;51.488;5.462;2022-12-16T13:56:45;15.97;;;14.03;;
75429;SDS011;64127;51.488;5.462;2022-12-16T13:59:38;15.70;;;13.37;;
75429;SDS011;64127;51.488;5.462;2022-12-16T14:02:32;15.63;;;14.00;;
75429;SDS011;64127;51.488;5.462;2022-12-16T14:05:30;15.90;;;13.73;;
75429;SDS011;64127;51.488;5.462;2022-12-16T14:08:35;15.80;;;14.10;;
75429;SDS011;64127;51.488;5.462;2022-12-16T14:11:31;16.27;;;13.67;;
75429;SDS011;64127;51.488;5.462;2022-12-16T14:14:58;14.80;;;13.13;;
75429;SDS011;64127;51.488;5.462;2022-12-16T14:18:02;15.10;;;13.50;;
75429;SDS011;64127;51.488;5.462;2022-12-16T14:21:18;14.20;;;12.70;;
75429;SDS011;64127;51.488;5.462;2022-12-16T14:24:22;15.53;;;13.73;;
75429;SDS011;64127;51.488;5.462;2022-12-16T14:27:21;18.87;;;14.63;;
75429;SDS011;64127;51.488;5.462;2022-12-16T14:30:14;16.90;;;14.80;;
75429;SDS011;64127;51.488;5.462;2022-12-16T14:33:22;17.20;;;15.40;;
75429;SDS011;64127;51.488;5.462;2022-12-16T14:36:19;20.60;;;15.30;;
75429;SDS011;64127;51.488;5.462;2022-12-16T14:39:21;16.87;;;15.07;;
75429;SDS011;64127;51.488;5.462;2022-12-16T14:45:32;16.27;;;14.53;;
75429;SDS011;64127;51.488;5.462;2022-12-16T14:48:27;16.43;;;14.27;;
75429;SDS011;64127;51.488;5.462;2022-12-16T14:51:28;16.63;;;14.43;;
75429;SDS011;64127;51.488;5.462;2022-12-16T14:54:37;16.13;;;14.23;;
75429;SDS011;64127;51.488;5.462;2022-12-16T14:57:32;17.60;;;14.90;;
75429;SDS011;64127;51.488;5.462;2022-12-16T15:00:23;20.33;;;15.10;;
75429;SDS011;64127;51.488;5.462;2022-12-16T15:03:18;18.00;;;14.97;;
75429;SDS011;64127;51.488;5.462;2022-12-16T15:06:26;16.60;;;14.53;;
75429;SDS011;64127;51.488;5.462;2022-12-16T15:09:28;17.07;;;14.27;;
75429;SDS011;64127;51.488;5.462;2022-12-16T15:12:28;17.30;;;15.43;;
75429;SDS011;64127;51.488;5.462;2022-12-16T15:18:40;15.73;;;14.17;;
75429;SDS011;64127;51.488;5.462;2022-12-16T15:21:36;17.07;;;15.17;;
75429;SDS011;64127;51.488;5.462;2022-12-16T15:24:26;17.30;;;15.10;;
75429;SDS011;64127;51.488;5.462;2022-12-16T15:27:24;16.73;;;15.00;;
75429;SDS011;64127;51.488;5.462;2022-12-16T15:30:35;17.67;;;15.77;;
75429;SDS011;64127;51.488;5.462;2022-12-16T15:33:35;18.27;;;15.97;;
75429;SDS011;64127;51.488;5.462;2022-12-16T15:36:31;18.63;;;16.67;;
75429;SDS011;64127;51.488;5.462;2022-12-16T15:39:30;25.23;;;22.60;;
75429;SDS011;64127;51.488;5.462;2022-12-16T15:42:27;21.60;;;18.50;;
75429;SDS011;64127;51.488;5.462;2022-12-16T15:48:30;19.13;;;17.13;;
75429;SDS011;64127;51.488;5.462;2022-12-16T15:51:31;18.57;;;16.57;;
75429;SDS011;64127;51.488;5.462;2022-12-16T15:54:49;18.73;;;16.70;;
75429;SDS011;64127;51.488;5.462;2022-12-16T15:57:55;20.37;;;16.63;;
75429;SDS011;64127;51.488;5.462;2022-12-16T16:00:54;18.63;;;15.97;;
75429;SDS011;64127;51.488;5.462;2022-12-16T16:03:49;19.00;;;16.67;;
75429;SDS011;64127;51.488;5.462;2022-12-16T16:06:52;17.83;;;15.30;;
75429;SDS011;64127;51.488;5.462;2022-12-16T16:09:42;18.00;;;15.57;;
75429;SDS011;64127;51.488;5.462;2022-12-16T16:12:49;20.60;;;16.07;;
75429;SDS011;64127;51.488;5.462;2022-12-16T16:15:40;18.20;;;15.97;;
75429;SDS011;64127;51.488;5.462;2022-12-16T16:18:30;18.03;;;16.10;;
75429;SDS011;64127;51.488;5.462;2022-12-16T16:21:21;19.17;;;16.33;;
75429;SDS011;64127;51.488;5.462;2022-12-16T16:24:12;18.57;;;16.57;;
75429;SDS011;64127;51.488;5.462;2022-12-16T16:27:05;18.77;;;16.13;;
75429;SDS011;64127;51.488;5.462;2022-12-16T16:30:03;20.57;;;16.50;;
75429;SDS011;64127;51.488;5.462;2022-12-16T16:33:11;19.90;;;17.23;;
75429;SDS011;64127;51.488;5.462;2022-12-16T16:36:09;17.90;;;15.83;;
75429;SDS011;64127;51.488;5.462;2022-12-16T16:39:04;18.57;;;16.57;;
75429;SDS011;64127;51.488;5.462;2022-12-16T16:41:54;19.53;;;16.63;;
75429;SDS011;64127;51.488;5.462;2022-12-16T16:44:45;17.30;;;15.50;;
75429;SDS011;64127;51.488;5.462;2022-12-16T16:47:36;18.90;;;16.73;;
75429;SDS011;64127;51.488;5.462;2022-12-16T16:50:27;18.13;;;16.03;;
75429;SDS011;64127;51.488;5.462;2022-12-16T16:53:17;18.50;;;15.77;;
75429;SDS011;64127;51.488;5.462;2022-12-16T16:56:09;18.37;;;16.00;;
75429;SDS011;64127;51.488;5.462;2022-12-16T16:59:01;18.20;;;15.93;;
75429;SDS011;64127;51.488;5.462;2022-12-16T17:01:53;18.20;;;16.30;;
75429;SDS011;64127;51.488;5.462;2022-12-16T17:04:44;18.93;;;16.20;;
75429;SDS011;64127;51.488;5.462;2022-12-16T17:07:35;19.73;;;15.67;;
75429;SDS011;64127;51.488;5.462;2022-12-16T17:10:25;19.13;;;16.30;;
75429;SDS011;64127;51.488;5.462;2022-12-16T17:13:16;18.50;;;16.50;;
75429;SDS011;64127;51.488;5.462;2022-12-16T17:16:08;18.37;;;16.10;;
75429;SDS011;64127;51.488;5.462;2022-12-16T17:19:02;20.50;;;16.83;;
75429;SDS011;64127;51.488;5.462;2022-12-16T17:21:52;19.10;;;16.37;;
75429;SDS011;64127;51.488;5.462;2022-12-16T17:24:43;19.70;;;16.73;;
75429;SDS011;64127;51.488;5.462;2022-12-16T17:27:33;20.10;;;17.13;;
75429;SDS011;64127;51.488;5.462;2022-12-16T17:30:24;35.47;;;24.80;;
75429;SDS011;64127;51.488;5.462;2022-12-16T17:33:18;48.43;;;31.13;;
75429;SDS011;64127;51.488;5.462;2022-12-16T17:36:12;53.97;;;36.03;;
75429;SDS011;64127;51.488;5.462;2022-12-16T17:39:12;43.87;;;29.03;;
75429;SDS011;64127;51.488;5.462;2022-12-16T17:42:03;44.57;;;29.87;;
75429;SDS011;64127;51.488;5.462;2022-12-16T17:44:54;36.57;;;26.73;;
75429;SDS011;64127;51.488;5.462;2022-12-16T17:47:44;29.10;;;22.53;;
75429;SDS011;64127;51.488;5.462;2022-12-16T17:50:35;29.13;;;21.97;;
75429;SDS011;64127;51.488;5.462;2022-12-16T17:53:26;24.73;;;20.80;;
75429;SDS011;64127;51.488;5.462;2022-12-16T17:56:25;26.40;;;20.83;;
75429;SDS011;64127;51.488;5.462;2022-12-16T17:59:16;21.97;;;18.80;;
75429;SDS011;64127;51.488;5.462;2022-12-16T18:02:07;20.50;;;18.30;;
75429;SDS011;64127;51.488;5.462;2022-12-16T18:05:02;20.23;;;17.97;;
75429;SDS011;64127;51.488;5.462;2022-12-16T18:07:52;21.07;;;18.27;;
75429;SDS011;64127;51.488;5.462;2022-12-16T18:10:43;20.60;;;17.93;;
75429;SDS011;64127;51.488;5.462;2022-12-16T18:13:34;20.63;;;17.87;;
75429;SDS011;64127;51.488;5.462;2022-12-16T18:16:26;20.37;;;17.60;;
75429;SDS011;64127;51.488;5.462;2022-12-16T18:19:17;19.80;;;16.33;;
75429;SDS011;64127;51.488;5.462;2022-12-16T18:22:08;19.67;;;16.87;;
75429;SDS011;64127;51.488;5.462;2022-12-16T18:24:58;20.30;;;17.87;;
75429;SDS011;64127;51.488;5.462;2022-12-16T18:27:49;18.43;;;16.53;;
75429;SDS011;64127;51.488;5.462;2022-12-16T18:30:39;19.73;;;17.20;;
75429;SDS011;64127;51.488;5.462;2022-12-16T18:33:30;19.80;;;17.17;;
75429;SDS011;64127;51.488;5.462;2022-12-16T18:36:20;20.83;;;17.73;;
75429;SDS011;64127;51.488;5.462;2022-12-16T18:39:11;23.53;;;20.23;;
75429;SDS011;64127;51.488;5.462;2022-12-16T18:42:01;23.17;;;20.13;;